Terminal Aerodrome Forecast
Issued by NWS North Platte, NE

Home | Current Version | Previous Version | Graphics & Text | Print | Product List | Glossary On
Versions: 1 2 3 4 5 6 7 8 9 10 11 12 13 14 15 16 17 18 19 20
412
FTUS43 KLBF 161120
TAFVTN
TAF
KVTN 161120Z 1612/1712 VRB03KT P6SM SKC
     FM161500 16007KT P6SM SKC
     FM161800 15010KT P6SM SKC
     FM170500 14011KT P6SM SCT200 WS020/18040KT
     FM170900 14011KT P6SM BKN200=

USA.gov is the U.S. government's official web portal to all federal, state and local government web resources and services.